createdAt,value
2022-09-01T00:00:02.653Z,16.79
2022-09-01T00:02:36.993Z,16.79
2022-09-01T00:05:09.975Z,16.79
2022-09-01T00:07:40.596Z,16.79
2022-09-01T00:10:31.370Z,16.80
2022-09-01T00:13:07.111Z,16.80
2022-09-01T00:15:38.226Z,16.80
2022-09-01T00:18:17.679Z,16.78
2022-09-01T00:20:59.589Z,16.77
2022-09-01T00:23:40.821Z,16.75
2022-09-01T00:26:32.517Z,16.72
2022-09-01T00:29:06.118Z,16.69
2022-09-01T00:31:40.493Z,16.67
2022-09-01T00:34:17.714Z,16.62
2022-09-01T00:36:51.132Z,16.58
2022-09-01T00:39:21.842Z,16.55
2022-09-01T00:42:05.933Z,16.50
2022-09-01T00:44:38.405Z,16.47
2022-09-01T00:47:20.359Z,16.44
2022-09-01T00:49:54.804Z,16.42
2022-09-01T00:52:33.279Z,16.42
2022-09-01T00:55:09.238Z,16.40
2022-09-01T00:57:51.446Z,16.39
2022-09-01T01:00:40.972Z,16.39
2022-09-01T01:03:14.346Z,16.33
2022-09-01T01:06:08.566Z,16.38
2022-09-01T01:08:44.529Z,16.33
2022-09-01T01:11:35.445Z,16.38
2022-09-01T01:14:27.821Z,16.38
2022-09-01T01:17:02.491Z,16.37
2022-09-01T01:20:00.445Z,16.35
2022-09-01T01:22:53.630Z,16.34
2022-09-01T01:25:24.634Z,16.35
2022-09-01T01:28:04.528Z,16.33
2022-09-01T01:30:36.922Z,16.31
2022-09-01T01:33:08.970Z,16.30
2022-09-01T01:35:43.793Z,16.30
2022-09-01T01:38:22.893Z,16.30
2022-09-01T01:40:56.391Z,16.29
2022-09-01T01:43:29.400Z,16.27
2022-09-01T01:46:20.650Z,16.28
2022-09-01T01:48:57.272Z,16.26
2022-09-01T01:51:33.017Z,16.26
2022-09-01T01:54:24.671Z,16.26
2022-09-01T01:57:17.304Z,16.24
2022-09-01T01:59:59.317Z,16.24
2022-09-01T02:02:40.202Z,16.21
2022-09-01T02:05:25.017Z,16.16
2022-09-01T02:08:03.941Z,16.11
2022-09-01T02:10:37.480Z,16.08
2022-09-01T02:13:12.078Z,16.04
2022-09-01T02:15:48.710Z,15.98
2022-09-01T02:18:34.357Z,15.89
2022-09-01T02:21:15.158Z,15.79
2022-09-01T02:23:57.502Z,15.72
2022-09-01T02:26:38.655Z,15.65
2022-09-01T02:29:18.069Z,15.58
2022-09-01T02:31:53.760Z,15.52
2022-09-01T02:34:29.087Z,15.48
2022-09-01T02:37:03.042Z,15.51
2022-09-01T02:39:36.013Z,15.53
2022-09-01T02:42:30.256Z,15.53
2022-09-01T02:45:15.749Z,15.52
2022-09-01T02:47:57.097Z,15.47
2022-09-01T02:50:39.951Z,15.43
2022-09-01T02:53:15.508Z,15.38
2022-09-01T02:56:09.667Z,15.35
2022-09-01T02:58:52.162Z,15.31
2022-09-01T03:01:44.786Z,15.27
2022-09-01T03:04:15.941Z,15.23
2022-09-01T03:06:49.879Z,15.24
2022-09-01T03:09:24.291Z,15.21
2022-09-01T03:12:15.187Z,15.16
2022-09-01T03:14:45.918Z,15.12
2022-09-01T03:17:37.009Z,15.07
2022-09-01T03:20:11.557Z,15.00
2022-09-01T03:22:46.045Z,14.93
2022-09-01T03:25:18.857Z,14.84
2022-09-01T03:28:11.212Z,14.74
2022-09-01T03:30:54.754Z,14.65
2022-09-01T03:33:29.761Z,14.55
2022-09-01T03:36:01.542Z,14.47
2022-09-01T03:38:36.048Z,14.39
2022-09-01T03:41:21.698Z,14.32
2022-09-01T03:44:16.240Z,14.27
2022-09-01T03:46:58.504Z,14.20
2022-09-01T03:49:29.429Z,14.17
2022-09-01T03:52:10.408Z,14.12
2022-09-01T03:54:55.741Z,14.05
2022-09-01T03:57:42.887Z,13.99
2022-09-01T04:00:23.364Z,13.95
2022-09-01T04:03:01.428Z,13.90
2022-09-01T04:05:46.145Z,13.85
2022-09-01T04:08:17.106Z,13.82
2022-09-01T04:10:54.221Z,13.80
2022-09-01T04:13:28.047Z,13.77
2022-09-01T04:16:01.608Z,13.73
2022-09-01T04:18:35.951Z,13.69
2022-09-01T04:21:14.899Z,13.66
2022-09-01T04:23:48.919Z,13.64
2022-09-01T04:26:26.790Z,13.61
2022-09-01T04:28:58.615Z,13.57
2022-09-01T04:31:34.414Z,13.52
2022-09-01T04:34:14.584Z,13.47
2022-09-01T04:36:56.059Z,13.43
2022-09-01T04:39:29.715Z,13.42
2022-09-01T04:42:11.185Z,13.40
2022-09-01T04:44:54.004Z,13.36
2022-09-01T04:47:35.537Z,13.33
2022-09-01T04:50:17.556Z,13.30
2022-09-01T04:53:12.105Z,13.29
2022-09-01T04:56:07.641Z,13.28
2022-09-01T04:58:42.416Z,13.28
2022-09-01T05:01:43.569Z,13.29
2022-09-01T05:04:32.708Z,13.30
2022-09-01T05:07:08.489Z,13.30
2022-09-01T05:09:43.509Z,13.31
2022-09-01T05:12:39.337Z,13.33
2022-09-01T05:15:13.761Z,13.36
2022-09-01T05:17:44.881Z,13.40
2022-09-01T05:20:16.507Z,13.42
2022-09-01T05:23:02.022Z,13.44
2022-09-01T05:25:39.043Z,13.45
2022-09-01T05:28:12.828Z,13.46
2022-09-01T05:30:47.858Z,13.48
2022-09-01T05:33:21.778Z,13.50
2022-09-01T05:36:01.242Z,13.52
2022-09-01T05:38:52.329Z,13.56
2022-09-01T05:41:25.951Z,13.60
2022-09-01T05:44:00.570Z,13.66
2022-09-01T05:46:34.076Z,13.75
2022-09-01T05:49:16.296Z,13.88
2022-09-01T05:51:59.085Z,14.02
2022-09-01T05:54:32.645Z,14.20
2022-09-01T05:57:23.343Z,14.38
2022-09-01T05:59:58.237Z,14.57
2022-09-01T06:02:30.953Z,14.76
2022-09-01T06:05:14.164Z,14.94
2022-09-01T06:07:49.573Z,15.10
2022-09-01T06:10:20.254Z,15.23
2022-09-01T06:12:53.939Z,15.40
2022-09-01T06:15:25.611Z,15.54
2022-09-01T06:17:57.040Z,15.67
2022-09-01T06:20:31.778Z,15.80
2022-09-01T06:23:03.109Z,15.92
2022-09-01T06:25:32.739Z,16.05
2022-09-01T06:28:04.570Z,16.16
2022-09-01T06:30:36.557Z,16.27
2022-09-01T06:33:14.138Z,16.41
2022-09-01T06:35:59.127Z,16.54
2022-09-01T06:38:30.057Z,16.64
2022-09-01T06:41:05.861Z,16.77
2022-09-01T06:43:37.090Z,16.89
2022-09-01T06:46:06.321Z,17.02
2022-09-01T06:48:46.664Z,17.13
2022-09-01T06:51:21.738Z,17.24
2022-09-01T06:53:59.602Z,17.36
2022-09-01T06:56:41.565Z,17.47
2022-09-01T06:59:16.563Z,17.61
2022-09-01T07:02:01.448Z,17.79
2022-09-01T07:04:43.231Z,18.04
2022-09-01T07:10:25.247Z,18.64
2022-09-01T07:18:58.463Z,19.55
2022-09-01T07:21:41.960Z,19.80
2022-09-01T07:24:26.598Z,19.99
2022-09-01T07:27:35.613Z,20.04
2022-09-01T07:30:09.739Z,20.06
2022-09-01T07:32:47.607Z,20.05
2022-09-01T07:35:23.807Z,20.02
2022-09-01T07:38:48.487Z,19.97
2022-09-01T07:42:56.130Z,18.95
2022-09-01T07:44:10.429Z,19.97
2022-09-01T07:50:12.489Z,20.14
2022-09-01T07:52:44.211Z,20.15
2022-09-01T07:55:17.059Z,20.17
2022-09-01T07:57:47.787Z,20.23
2022-09-01T08:00:22.482Z,20.26
2022-09-01T08:02:57.102Z,20.26
2022-09-01T08:05:29.054Z,20.25
2022-09-01T08:08:00.254Z,20.31
2022-09-01T08:10:36.880Z,20.36
2022-09-01T08:13:15.420Z,20.38
2022-09-01T08:18:53.344Z,20.57
2022-09-01T08:21:30.510Z,20.77
2022-09-01T08:24:06.342Z,20.97
2022-09-01T08:26:40.548Z,21.10
2022-09-01T08:29:13.587Z,21.10
2022-09-01T08:31:47.444Z,21.13
2022-09-01T08:34:19.750Z,21.20
2022-09-01T08:36:50.656Z,21.31
2022-09-01T08:39:21.450Z,21.43
2022-09-01T08:42:05.350Z,21.53
2022-09-01T08:44:51.809Z,21.56
2022-09-01T08:47:43.749Z,21.64
2022-09-01T08:50:14.702Z,21.69
2022-09-01T08:53:32.693Z,21.78
2022-09-01T08:56:04.204Z,21.87
2022-09-01T08:58:33.684Z,21.98
2022-09-01T09:01:32.330Z,22.14
2022-09-01T09:04:28.802Z,22.27
2022-09-01T09:07:07.436Z,22.32
2022-09-01T09:09:53.043Z,22.40
2022-09-01T09:12:50.896Z,22.58
2022-09-01T09:15:31.393Z,22.72
2022-09-01T09:18:34.473Z,22.88
2022-09-01T09:21:10.209Z,22.89
2022-09-01T09:23:46.394Z,22.84
2022-09-01T09:26:22.216Z,22.83
2022-09-01T09:28:55.146Z,22.80
2022-09-01T09:31:33.910Z,22.85
2022-09-01T09:34:17.077Z,22.97
2022-09-01T09:36:54.698Z,23.03
2022-09-01T09:39:26.828Z,23.12
2022-09-01T09:42:09.523Z,23.17
2022-09-01T09:44:47.044Z,23.19
2022-09-01T09:47:43.647Z,23.20
2022-09-01T09:50:20.361Z,23.13
2022-09-01T09:52:52.198Z,23.08
2022-09-01T09:55:31.007Z,22.99
2022-09-01T09:58:10.546Z,22.90
2022-09-01T10:00:43.645Z,22.81
2022-09-01T10:03:15.937Z,22.78
2022-09-01T10:05:48.397Z,22.79
2022-09-01T10:08:44.858Z,22.81
2022-09-01T10:11:35.692Z,22.77
2022-09-01T10:14:11.070Z,22.73
2022-09-01T10:16:49.110Z,22.74
2022-09-01T10:19:24.229Z,22.82
2022-09-01T10:21:55.382Z,22.89
2022-09-01T10:24:31.007Z,22.93
2022-09-01T10:27:06.072Z,22.92
2022-09-01T10:29:47.917Z,22.88
2022-09-01T10:32:36.968Z,22.95
2022-09-01T10:35:13.668Z,23.15
2022-09-01T10:37:44.586Z,23.45
2022-09-01T10:40:20.890Z,23.63
2022-09-01T10:42:55.192Z,23.75
2022-09-01T10:45:40.024Z,23.92
2022-09-01T10:48:33.577Z,24.10
2022-09-01T10:51:50.626Z,24.19
2022-09-01T10:54:55.717Z,24.20
2022-09-01T10:57:42.903Z,24.41
2022-09-01T11:03:56.312Z,25.31
2022-09-01T11:07:12.564Z,25.87
2022-09-01T11:09:44.996Z,26.01
2022-09-01T11:12:43.076Z,25.92
2022-09-01T11:15:38.893Z,25.93
2022-09-01T11:18:18.988Z,26.49
2022-09-01T11:20:50.922Z,27.14
2022-09-01T11:23:27.988Z,27.77
2022-09-01T11:28:50.030Z,29.17
2022-09-01T11:31:31.911Z,29.53
2022-09-01T11:34:13.950Z,30.02
2022-09-01T11:36:55.710Z,30.25
2022-09-01T11:39:35.894Z,29.77
2022-09-01T11:42:11.538Z,29.27
2022-09-01T11:44:49.005Z,28.66
2022-09-01T11:47:22.128Z,28.02
2022-09-01T11:49:59.702Z,27.54
2022-09-01T11:52:37.035Z,27.16
2022-09-01T11:55:10.566Z,27.01
2022-09-01T11:57:42.090Z,26.96
2022-09-01T12:00:16.010Z,27.14
2022-09-01T12:02:49.741Z,27.11
2022-09-01T12:05:30.822Z,27.36
2022-09-01T12:08:03.410Z,27.49
2022-09-01T12:10:37.561Z,27.33
2022-09-01T12:13:09.674Z,27.25
2022-09-01T12:16:06.913Z,27.62
2022-09-01T12:18:37.192Z,28.25
2022-09-01T12:21:09.522Z,28.77
2022-09-01T12:23:43.173Z,29.22
2022-09-01T12:26:16.472Z,29.72
2022-09-01T12:28:49.873Z,30.28
2022-09-01T12:31:24.176Z,30.65
2022-09-01T12:33:56.911Z,30.95
2022-09-01T12:36:31.881Z,31.06
2022-09-01T12:39:23.561Z,31.32
2022-09-01T12:42:10.569Z,31.43
2022-09-01T12:44:50.951Z,31.11
2022-09-01T12:47:37.575Z,30.89
2022-09-01T12:50:29.969Z,30.34
2022-09-01T12:53:03.719Z,29.96
2022-09-01T12:55:52.046Z,29.50
2022-09-01T12:58:27.593Z,29.08
2022-09-01T13:01:02.030Z,28.94
2022-09-01T13:03:34.518Z,28.55
2022-09-01T13:06:06.912Z,28.23
2022-09-01T13:08:38.476Z,28.17
2022-09-01T13:11:09.111Z,28.16
2022-09-01T13:13:42.522Z,27.85
2022-09-01T13:16:14.732Z,27.53
2022-09-01T13:24:14.684Z,26.52
2022-09-01T13:27:20.159Z,26.19
2022-09-01T13:29:36.850Z,26.09
2022-09-01T13:32:24.543Z,26.31
2022-09-01T13:34:56.329Z,26.36
2022-09-01T13:37:26.953Z,26.51
2022-09-01T13:39:57.569Z,26.89
2022-09-01T13:42:28.953Z,27.43
2022-09-01T13:44:59.669Z,27.92
2022-09-01T13:47:29.754Z,28.17
2022-09-01T13:50:10.856Z,28.38
2022-09-01T13:52:44.216Z,28.42
2022-09-01T13:55:17.112Z,28.37
2022-09-01T13:57:49.749Z,28.29
2022-09-01T14:00:25.411Z,28.19
2022-09-01T14:03:00.438Z,27.93
2022-09-01T14:05:33.276Z,27.72
2022-09-01T14:08:04.394Z,27.47
2022-09-01T14:10:39.226Z,27.10
2022-09-01T14:13:09.922Z,26.86
2022-09-01T14:15:39.063Z,26.69
2022-09-01T14:18:09.842Z,26.48
2022-09-01T14:20:41.158Z,26.34
2022-09-01T14:23:13.257Z,26.15
2022-09-01T14:25:48.103Z,26.13
2022-09-01T14:28:20.673Z,26.38
2022-09-01T14:33:24.245Z,26.46
2022-09-01T14:35:55.223Z,26.40
2022-09-01T14:38:25.683Z,26.34
2022-09-01T14:40:56.481Z,26.20
2022-09-01T14:43:30.496Z,26.24
2022-09-01T14:46:10.268Z,26.36
2022-09-01T14:48:46.357Z,26.61
2022-09-01T14:51:23.644Z,26.52
2022-09-01T14:54:02.837Z,26.73
2022-09-01T14:56:33.395Z,26.66
2022-09-01T14:59:04.145Z,26.48
2022-09-01T15:01:35.073Z,26.31
2022-09-01T15:04:06.238Z,26.15
2022-09-01T15:06:36.926Z,26.03
2022-09-01T15:09:07.399Z,25.88
2022-09-01T15:11:44.008Z,25.78
2022-09-01T15:14:16.738Z,25.72
2022-09-01T15:16:47.473Z,25.70
2022-09-01T15:19:18.279Z,25.56
2022-09-01T15:21:49.443Z,25.52
2022-09-01T15:24:20.134Z,25.54
2022-09-01T15:26:50.974Z,25.51
2022-09-01T15:29:20.086Z,25.48
2022-09-01T15:31:50.680Z,25.61
2022-09-01T15:34:21.337Z,25.59
2022-09-01T15:36:51.900Z,25.55
2022-09-01T15:39:22.727Z,25.46
2022-09-01T15:41:51.887Z,25.43
2022-09-01T15:44:23.470Z,25.57
2022-09-01T15:46:54.218Z,25.64
2022-09-01T15:49:23.358Z,25.62
2022-09-01T15:51:57.879Z,25.52
2022-09-01T15:54:30.699Z,25.37
2022-09-01T15:57:01.557Z,25.40
2022-09-01T15:59:32.991Z,25.46
2022-09-01T16:02:04.057Z,25.51
2022-09-01T16:04:34.843Z,25.49
2022-09-01T16:07:06.120Z,25.49
2022-09-01T16:09:37.240Z,25.48
2022-09-01T16:12:08.221Z,25.47
2022-09-01T16:14:40.531Z,25.43
2022-09-01T16:17:17.095Z,25.39
2022-09-01T16:19:56.004Z,25.34
2022-09-01T16:22:30.975Z,25.25
2022-09-01T16:25:07.565Z,25.19
2022-09-01T16:27:42.817Z,25.11
2022-09-01T16:30:16.657Z,25.01
2022-09-01T16:32:49.245Z,24.92
2022-09-01T16:35:23.660Z,24.83
2022-09-01T16:38:12.227Z,24.74
2022-09-01T16:40:47.343Z,24.65
2022-09-01T16:43:27.561Z,24.56
2022-09-01T16:46:08.948Z,24.47
2022-09-01T16:48:47.224Z,24.36
2022-09-01T16:51:28.924Z,24.31
2022-09-01T16:54:13.379Z,24.28
2022-09-01T16:56:54.998Z,24.25
2022-09-01T16:59:35.720Z,24.18
2022-09-01T17:02:24.444Z,24.12
2022-09-01T17:05:02.219Z,24.04
2022-09-01T17:07:45.956Z,23.94
2022-09-01T17:10:27.963Z,23.84
2022-09-01T17:12:58.752Z,23.72
2022-09-01T17:15:40.133Z,23.61
2022-09-01T17:18:22.295Z,23.48
2022-09-01T17:21:02.389Z,23.36
2022-09-01T17:23:38.477Z,23.25
2022-09-01T17:26:16.612Z,23.14
2022-09-01T17:28:52.160Z,23.04
2022-09-01T17:31:36.094Z,22.92
2022-09-01T17:34:22.131Z,22.79
2022-09-01T17:37:05.569Z,22.67
2022-09-01T17:39:43.685Z,22.55
2022-09-01T17:42:27.359Z,22.44
2022-09-01T17:45:02.146Z,22.34
2022-09-01T17:47:45.263Z,22.24
2022-09-01T17:50:21.971Z,22.13
2022-09-01T17:53:20.302Z,22.01
2022-09-01T17:55:55.828Z,21.85
2022-09-01T17:58:40.152Z,21.72
2022-09-01T18:01:24.099Z,21.56
2022-09-01T18:04:27.572Z,21.40
2022-09-01T18:07:03.485Z,21.22
2022-09-01T18:09:43.924Z,21.07
2022-09-01T18:12:23.555Z,20.91
2022-09-01T18:15:04.529Z,20.77
2022-09-01T18:17:36.826Z,20.63
2022-09-01T18:20:18.481Z,20.49
2022-09-01T18:25:39.824Z,20.24
2022-09-01T18:28:11.626Z,20.13
2022-09-01T18:30:53.397Z,20.03
2022-09-01T18:33:30.282Z,19.91
2022-09-01T18:36:18.069Z,19.81
2022-09-01T18:38:57.333Z,19.71
2022-09-01T18:41:44.541Z,19.62
2022-09-01T18:44:39.963Z,19.52
2022-09-01T18:47:15.327Z,19.43
2022-09-01T18:50:01.579Z,19.34
2022-09-01T18:52:48.704Z,19.24
2022-09-01T18:55:28.158Z,19.13
2022-09-01T18:58:04.032Z,19.03
2022-09-01T19:00:52.102Z,18.95
2022-09-01T19:03:27.259Z,18.87
2022-09-01T19:06:12.980Z,18.80
2022-09-01T19:08:54.126Z,18.72
2022-09-01T19:11:33.817Z,18.66
2022-09-01T19:14:12.514Z,18.59
2022-09-01T19:16:56.759Z,18.54
2022-09-01T19:19:40.025Z,18.49
2022-09-01T19:22:15.850Z,18.45
2022-09-01T19:24:50.476Z,18.40
2022-09-01T19:27:27.217Z,18.38
2022-09-01T19:30:04.171Z,18.34
2022-09-01T19:32:40.004Z,18.29
2022-09-01T19:35:13.411Z,18.23
2022-09-01T19:37:47.885Z,18.21
2022-09-01T19:40:24.762Z,18.17
2022-09-01T19:43:04.108Z,18.11
2022-09-01T19:45:47.169Z,18.06
2022-09-01T19:48:22.434Z,18.00
2022-09-01T19:50:58.732Z,17.95
2022-09-01T19:53:50.036Z,17.90
2022-09-01T19:56:26.675Z,17.83
2022-09-01T19:59:14.212Z,17.77
2022-09-01T20:01:59.123Z,17.71
2022-09-01T20:04:43.018Z,17.64
2022-09-01T20:07:31.907Z,17.56
2022-09-01T20:10:28.644Z,17.50
2022-09-01T20:13:19.217Z,17.45
2022-09-01T20:15:55.734Z,17.37
2022-09-01T20:18:33.511Z,17.33
2022-09-01T20:21:24.505Z,17.26
2022-09-01T20:24:21.053Z,17.23
2022-09-01T20:27:01.653Z,17.19
2022-09-01T20:29:55.718Z,17.14
2022-09-01T20:32:54.878Z,17.09
2022-09-01T20:35:50.063Z,17.07
2022-09-01T20:39:05.909Z,17.09
2022-09-01T20:41:44.507Z,17.08
2022-09-01T20:44:23.571Z,17.05
2022-09-01T20:47:00.213Z,17.00
2022-09-01T20:49:49.848Z,16.95
2022-09-01T20:52:36.549Z,16.93
2022-09-01T20:55:16.254Z,16.88
2022-09-01T20:57:57.917Z,16.88
2022-09-01T21:00:48.516Z,16.86
2022-09-01T21:03:47.250Z,16.80
2022-09-01T21:06:32.213Z,16.76
2022-09-01T21:09:15.850Z,16.71
2022-09-01T21:12:11.097Z,16.66
2022-09-01T21:15:13.404Z,16.61
2022-09-01T21:17:56.301Z,16.56
2022-09-01T21:20:45.423Z,16.51
2022-09-01T21:23:37.084Z,16.45
2022-09-01T21:26:10.466Z,16.41
2022-09-01T21:28:57.430Z,16.35
2022-09-01T21:31:38.207Z,16.31
2022-09-01T21:34:22.801Z,16.27
2022-09-01T21:37:03.655Z,16.23
2022-09-01T21:39:34.415Z,16.19
2022-09-01T21:42:12.327Z,16.17
2022-09-01T21:44:56.348Z,16.16
2022-09-01T21:47:38.340Z,16.12
2022-09-01T21:50:24.076Z,16.15
2022-09-01T21:53:15.418Z,16.15
2022-09-01T21:55:56.514Z,16.14
2022-09-01T21:58:41.173Z,16.13
2022-09-01T22:01:22.085Z,16.12
2022-09-01T22:04:05.360Z,16.09
2022-09-01T22:06:56.208Z,16.12
2022-09-01T22:09:47.825Z,16.11
2022-09-01T22:12:21.600Z,16.09
2022-09-01T22:14:52.361Z,16.07
2022-09-01T22:17:28.199Z,16.05
2022-09-01T22:20:28.521Z,16.01
2022-09-01T22:23:09.403Z,15.94
2022-09-01T22:26:00.208Z,15.89
2022-09-01T22:28:52.051Z,15.82
2022-09-01T22:31:38.667Z,15.78
2022-09-01T22:34:09.994Z,15.74
2022-09-01T22:36:48.549Z,15.72
2022-09-01T22:39:26.829Z,15.68
2022-09-01T22:41:57.572Z,15.63
2022-09-01T22:44:30.659Z,15.60
2022-09-01T22:47:06.723Z,15.57
2022-09-01T22:49:35.879Z,15.54
2022-09-01T22:52:26.547Z,15.48
2022-09-01T22:55:09.182Z,15.44
2022-09-01T22:57:53.094Z,15.40
2022-09-01T23:00:48.542Z,15.34
2022-09-01T23:03:20.846Z,15.30
2022-09-01T23:06:05.360Z,15.26
2022-09-01T23:08:39.115Z,15.24
2022-09-01T23:11:14.277Z,15.22
2022-09-01T23:13:55.515Z,15.19
2022-09-01T23:16:28.582Z,15.15
2022-09-01T23:19:03.159Z,15.11
2022-09-01T23:21:42.394Z,15.14
2022-09-01T23:24:16.218Z,15.23
2022-09-01T23:26:51.372Z,15.32
2022-09-01T23:29:22.095Z,15.41
2022-09-01T23:32:00.612Z,15.51
2022-09-01T23:34:52.124Z,15.61
2022-09-01T23:37:25.254Z,15.66
2022-09-01T23:39:57.365Z,15.69
2022-09-01T23:42:35.646Z,15.70
2022-09-01T23:45:18.482Z,15.70
2022-09-01T23:47:52.224Z,15.65
2022-09-01T23:50:25.258Z,15.58
2022-09-01T23:52:55.862Z,15.52
2022-09-01T23:55:35.633Z,15.48
2022-09-01T23:58:08.923Z,15.44
